createdAt,value
2018-02-08T00:01:36.078Z,69.78
2018-02-08T00:04:03.607Z,70.22
2018-02-08T00:06:31.300Z,70.55
2018-02-08T00:08:58.950Z,65.65
2018-02-08T00:11:27.028Z,66.57
2018-02-08T00:13:54.842Z,64.68
2018-02-08T00:16:23.371Z,73.22
2018-02-08T00:18:52.168Z,71.20
2018-02-08T00:21:20.809Z,66.00
2018-02-08T00:23:51.340Z,68.82
2018-02-08T00:26:20.084Z,63.15
2018-02-08T00:28:50.356Z,66.78
2018-02-08T00:31:18.217Z,62.13
2018-02-08T00:33:45.986Z,63.50
2018-02-08T00:36:13.503Z,66.15
2018-02-08T00:38:41.804Z,66.35
2018-02-08T00:41:09.332Z,75.22
2018-02-08T00:43:36.876Z,61.80
2018-02-08T00:46:04.944Z,59.40
2018-02-08T00:48:32.483Z,64.30
2018-02-08T00:51:00.131Z,62.60
2018-02-08T00:53:28.373Z,61.83
2018-02-08T00:55:56.258Z,65.68
2018-02-08T00:58:25.070Z,58.55
2018-02-08T01:00:53.212Z,65.12
2018-02-08T01:03:24.822Z,63.08
2018-02-08T01:05:53.505Z,66.85
2018-02-08T01:08:22.384Z,56.92
2018-02-08T01:10:50.345Z,59.63
2018-02-08T01:13:17.935Z,57.13
2018-02-08T01:15:45.492Z,60.63
2018-02-08T01:18:13.736Z,58.35
2018-02-08T01:20:41.288Z,53.20
2018-02-08T01:23:08.812Z,53.83
2018-02-08T01:25:36.390Z,56.78
2018-02-08T01:28:03.909Z,56.13
2018-02-08T01:30:31.465Z,54.00
2018-02-08T01:32:59.651Z,51.35
2018-02-08T01:35:27.759Z,56.67
2018-02-08T01:37:55.368Z,56.45
2018-02-08T01:40:24.128Z,59.65
2018-02-08T01:42:52.489Z,55.25
2018-02-08T01:45:21.402Z,56.63
2018-02-08T01:47:51.325Z,56.20
2018-02-08T01:50:21.264Z,59.97
2018-02-08T01:52:50.588Z,51.03
2018-02-08T01:55:19.738Z,62.88
2018-02-08T01:57:51.191Z,54.28
2018-02-08T02:00:19.789Z,56.15
2018-02-08T02:02:47.443Z,54.83
2018-02-08T02:05:14.983Z,56.78
2018-02-08T02:07:42.521Z,56.42
2018-02-08T02:10:10.809Z,58.25
2018-02-08T02:12:39.116Z,63.10
2018-02-08T02:15:06.641Z,57.72
2018-02-08T02:17:35.636Z,54.53
2018-02-08T02:20:03.929Z,57.33
2018-02-08T02:22:31.472Z,54.85
2018-02-08T02:25:00.188Z,61.03
2018-02-08T02:27:28.603Z,52.95
2018-02-08T02:29:57.600Z,53.55
2018-02-08T02:32:27.125Z,50.35
2018-02-08T02:34:55.960Z,54.75
2018-02-08T02:37:24.539Z,53.13
2018-02-08T02:39:53.027Z,55.75
2018-02-08T02:42:21.557Z,55.58
2018-02-08T02:44:50.810Z,47.78
2018-02-08T02:47:19.187Z,49.83
2018-02-08T02:49:47.581Z,56.40
2018-02-08T02:52:16.197Z,53.70
2018-02-08T02:54:43.744Z,50.12
2018-02-08T02:57:11.276Z,55.38
2018-02-08T02:59:38.809Z,51.00
2018-02-08T03:02:06.340Z,46.50
2018-02-08T03:04:33.884Z,53.90
2018-02-08T03:07:04.068Z,49.92
2018-02-08T03:09:32.118Z,48.47
2018-02-08T03:12:01.119Z,49.20
2018-02-08T03:14:29.742Z,54.47
2018-02-08T03:16:57.916Z,51.75
2018-02-08T03:19:26.582Z,53.75
2018-02-08T03:21:55.579Z,45.38
2018-02-08T03:24:25.504Z,49.88
2018-02-08T03:26:53.747Z,41.22
2018-02-08T03:29:22.867Z,52.00
2018-02-08T03:31:51.871Z,51.22
2018-02-08T03:34:21.301Z,51.67
2018-02-08T03:36:52.018Z,53.15
2018-02-08T03:39:21.300Z,49.75
2018-02-08T03:41:51.274Z,51.10
2018-02-08T03:44:20.206Z,50.30
2018-02-08T03:46:48.073Z,47.45
2018-02-08T03:49:15.696Z,49.83
2018-02-08T03:51:43.235Z,48.67
2018-02-08T03:54:10.864Z,50.85
2018-02-08T03:56:38.408Z,47.20
2018-02-08T03:59:05.934Z,49.80
2018-02-08T04:01:33.489Z,49.47
2018-02-08T04:04:01.017Z,54.95
2018-02-08T04:06:28.918Z,49.88
2018-02-08T04:08:57.141Z,54.72
2018-02-08T04:11:25.084Z,51.53
2018-02-08T04:13:53.281Z,53.58
2018-02-08T04:16:23.192Z,48.03
2018-02-08T04:18:51.975Z,51.83
2018-02-08T04:21:21.330Z,58.87
2018-02-08T04:23:51.168Z,48.53
2018-02-08T04:26:21.004Z,47.08
2018-02-08T04:28:49.110Z,41.20
2018-02-08T04:31:17.670Z,45.05
2018-02-08T04:33:46.576Z,45.28
2018-02-08T04:36:14.209Z,49.50
2018-02-08T04:38:53.871Z,47.58
2018-02-08T04:41:33.286Z,47.88
2018-02-08T04:44:23.175Z,56.05
2018-02-08T04:47:04.805Z,43.78
2018-02-08T04:49:32.378Z,46.03
2018-02-08T04:52:00.245Z,48.97
2018-02-08T04:54:28.441Z,44.58
2018-02-08T04:56:57.018Z,55.38
2018-02-08T04:59:25.305Z,51.85
2018-02-08T05:01:54.413Z,52.70
2018-02-08T05:04:22.876Z,52.22
2018-02-08T05:06:52.459Z,52.72
2018-02-08T05:09:23.624Z,46.90
2018-02-08T05:11:52.796Z,44.58
2018-02-08T05:14:22.216Z,51.15
2018-02-08T05:16:52.810Z,49.28
2018-02-08T05:19:23.447Z,49.92
2018-02-08T05:21:52.987Z,54.17
2018-02-08T05:24:22.458Z,50.30
2018-02-08T05:26:51.753Z,44.22
2018-02-08T05:29:21.077Z,54.85
2018-02-08T05:31:50.497Z,50.35
2018-02-08T05:34:20.814Z,55.70
2018-02-08T05:36:50.290Z,51.28
2018-02-08T05:39:18.310Z,48.72
2018-02-08T05:41:46.740Z,54.88
2018-02-08T05:44:14.797Z,56.47
2018-02-08T05:46:42.343Z,47.65
2018-02-08T05:49:10.796Z,47.85
2018-02-08T05:51:38.339Z,48.63
2018-02-08T05:54:05.888Z,47.10
2018-02-08T05:56:33.418Z,51.40
2018-02-08T05:59:01.913Z,51.95
2018-02-08T06:01:29.865Z,48.58
2018-02-08T06:03:57.750Z,51.95
2018-02-08T06:06:25.823Z,50.03
2018-02-08T06:08:53.590Z,43.47
2018-02-08T06:11:21.704Z,49.20
2018-02-08T06:13:51.884Z,44.45
2018-02-08T06:16:21.083Z,45.45
2018-02-08T06:18:50.181Z,45.38
2018-02-08T06:21:19.566Z,56.45
2018-02-08T06:23:49.323Z,47.33
2018-02-08T06:26:16.958Z,46.50
2018-02-08T06:28:44.629Z,49.33
2018-02-08T06:31:12.165Z,48.42
2018-02-08T06:33:40.167Z,49.53
2018-02-08T06:36:07.690Z,50.63
2018-02-08T06:38:35.212Z,54.28
2018-02-08T06:41:02.773Z,46.17
2018-02-08T06:43:30.786Z,51.67
2018-02-08T06:45:58.563Z,56.42
2018-02-08T06:48:26.184Z,48.13
2018-02-08T06:50:54.571Z,52.08
2018-02-08T06:53:22.370Z,47.92
2018-02-08T06:55:50.649Z,48.92
2018-02-08T06:58:19.639Z,49.85
2018-02-08T07:00:47.234Z,50.00
2018-02-08T07:03:14.774Z,52.05
2018-02-08T07:05:42.422Z,52.72
2018-02-08T07:08:09.964Z,52.90
2018-02-08T07:10:37.509Z,53.45
2018-02-08T07:13:05.031Z,55.28
2018-02-08T07:15:32.889Z,47.40
2018-02-08T07:18:00.420Z,56.80
2018-02-08T07:20:27.981Z,53.20
2018-02-08T07:22:55.575Z,48.15
2018-02-08T07:25:24.201Z,57.60
2018-02-08T07:27:52.352Z,50.83
2018-02-08T07:30:20.793Z,50.72
2018-02-08T07:32:48.380Z,54.15
2018-02-08T07:35:15.971Z,51.40
2018-02-08T07:37:44.278Z,52.05
2018-02-08T07:40:11.805Z,45.72
2018-02-08T07:42:39.374Z,46.55
2018-02-08T07:45:08.155Z,50.00
2018-02-08T07:47:36.494Z,56.65
2018-02-08T07:50:04.020Z,54.22
2018-02-08T07:52:31.613Z,51.05
2018-02-08T07:54:59.177Z,47.97
2018-02-08T07:57:27.002Z,51.50
2018-02-08T07:59:54.713Z,50.75
2018-02-08T08:02:23.164Z,50.60
2018-02-08T08:04:50.836Z,48.70
2018-02-08T08:07:18.593Z,51.50
2018-02-08T08:09:47.186Z,48.30
2018-02-08T08:12:14.717Z,47.75
2018-02-08T08:14:42.332Z,41.33
2018-02-08T08:17:09.870Z,45.97
2018-02-08T08:19:37.430Z,48.58
2018-02-08T08:22:04.965Z,45.28
2018-02-08T08:24:32.517Z,43.78
2018-02-08T08:27:00.610Z,45.15
2018-02-08T08:29:28.157Z,47.92
2018-02-08T08:31:55.932Z,50.58
2018-02-08T08:34:23.803Z,45.42
2018-02-08T08:36:51.452Z,50.20
2018-02-08T08:39:19.436Z,45.20
2018-02-08T08:41:47.401Z,46.57
2018-02-08T08:44:16.616Z,48.67
2018-02-08T08:46:44.328Z,46.78
2018-02-08T08:49:13.153Z,44.83
2018-02-08T08:51:42.163Z,47.60
2018-02-08T08:54:09.702Z,43.53
2018-02-08T08:56:37.588Z,43.57
2018-02-08T08:59:05.120Z,41.80
2018-02-08T09:01:32.697Z,52.77
2018-02-08T09:04:00.234Z,42.60
2018-02-08T09:06:28.174Z,41.33
2018-02-08T09:08:57.012Z,44.20
2018-02-08T09:11:25.504Z,43.90
2018-02-08T09:13:53.612Z,48.07
2018-02-08T09:16:22.523Z,42.97
2018-02-08T09:18:50.299Z,49.77
2018-02-08T09:21:18.626Z,45.23
2018-02-08T09:23:46.397Z,43.73
2018-02-08T09:26:14.125Z,47.10
2018-02-08T09:28:42.209Z,44.17
2018-02-08T09:31:09.765Z,44.23
2018-02-08T09:33:37.328Z,50.40
2018-02-08T09:36:04.874Z,47.60
2018-02-08T09:38:32.419Z,44.40
2018-02-08T09:41:00.763Z,40.50
2018-02-08T09:43:28.504Z,41.60
2018-02-08T09:45:56.216Z,40.43
2018-02-08T09:48:24.938Z,50.80
2018-02-08T09:50:52.560Z,46.10
2018-02-08T09:53:21.135Z,37.33
2018-02-08T09:55:50.351Z,40.43
2018-02-08T09:58:18.050Z,41.37
2018-02-08T10:00:45.622Z,38.13
2018-02-08T10:03:13.193Z,39.63
2018-02-08T10:05:40.724Z,34.70
2018-02-08T10:08:08.261Z,34.83
2018-02-08T10:10:35.824Z,41.13
2018-02-08T10:13:03.353Z,34.00
2018-02-08T10:15:30.933Z,40.20
2018-02-08T10:17:59.446Z,42.47
2018-02-08T10:20:27.149Z,42.57
2018-02-08T10:22:55.045Z,34.97
2018-02-08T10:25:23.048Z,31.80
2018-02-08T10:27:51.324Z,30.87
2018-02-08T10:30:19.220Z,34.77
2018-02-08T10:32:46.789Z,33.73
2018-02-08T10:35:14.338Z,35.10
2018-02-08T10:37:41.901Z,41.07
2018-02-08T10:40:09.449Z,33.97
2018-02-08T10:42:36.978Z,35.90
2018-02-08T10:45:04.514Z,27.40
2018-02-08T10:47:33.067Z,29.93
2018-02-08T10:50:00.631Z,32.70
2018-02-08T10:52:28.375Z,30.77
2018-02-08T10:54:56.331Z,39.70
2018-02-08T10:57:23.920Z,30.40
2018-02-08T10:59:51.981Z,30.90
2018-02-08T11:02:20.373Z,30.37
2018-02-08T11:04:48.208Z,29.73
2018-02-08T11:07:15.743Z,29.97
2018-02-08T11:09:44.461Z,31.87
2018-02-08T11:12:11.990Z,28.77
2018-02-08T11:14:39.517Z,28.93
2018-02-08T11:17:07.057Z,29.47
2018-02-08T11:19:34.573Z,29.37
2018-02-08T11:22:02.111Z,29.63
2018-02-08T11:24:30.018Z,27.30
2018-02-08T11:26:57.681Z,31.27
2018-02-08T11:29:25.547Z,25.40
2018-02-08T11:31:53.517Z,23.83
2018-02-08T11:34:21.487Z,28.23
2018-02-08T11:36:49.968Z,31.10
2018-02-08T11:39:17.892Z,26.30
2018-02-08T11:41:45.609Z,27.67
2018-02-08T11:44:13.141Z,32.27
2018-02-08T11:46:40.692Z,28.50
2018-02-08T11:49:08.982Z,32.37
2018-02-08T11:51:36.548Z,28.07
2018-02-08T11:54:04.090Z,24.63
2018-02-08T11:56:32.701Z,26.67
2018-02-08T11:59:00.466Z,26.93
2018-02-08T12:01:28.056Z,27.07
2018-02-08T12:03:55.796Z,30.50
2018-02-08T12:06:24.376Z,23.30
2018-02-08T12:08:53.405Z,23.07
2018-02-08T12:11:20.928Z,21.03
2018-02-08T12:13:48.448Z,22.77
2018-02-08T12:16:16.803Z,19.77
2018-02-08T12:18:44.429Z,20.67
2018-02-08T12:21:11.991Z,21.93
2018-02-08T12:23:40.053Z,20.40
2018-02-08T12:26:07.957Z,20.10
2018-02-08T12:28:36.066Z,26.43
2018-02-08T12:31:05.300Z,13.27
2018-02-08T12:33:33.280Z,14.90
2018-02-08T12:36:01.536Z,18.80
2018-02-08T12:38:29.509Z,18.40
2018-02-08T12:40:57.487Z,17.67
2018-02-08T12:43:26.610Z,15.57
2018-02-08T12:45:55.877Z,14.57
2018-02-08T12:48:24.218Z,17.63
2018-02-08T12:50:51.757Z,16.77
2018-02-08T12:53:19.311Z,16.57
2018-02-08T12:55:47.513Z,18.07
2018-02-08T12:58:15.809Z,15.17
2018-02-08T13:00:43.715Z,16.33
2018-02-08T13:03:11.251Z,20.00
2018-02-08T13:05:39.145Z,21.67
2018-02-08T13:08:07.316Z,19.57
2018-02-08T13:10:35.702Z,21.03
2018-02-08T13:13:03.348Z,21.10
2018-02-08T13:15:30.934Z,21.47
2018-02-08T13:17:58.761Z,20.63
2018-02-08T13:20:27.254Z,21.47
2018-02-08T13:22:55.126Z,18.90
2018-02-08T13:25:23.914Z,21.23
2018-02-08T13:27:52.297Z,20.37
2018-02-08T13:30:21.293Z,20.17
2018-02-08T13:32:49.668Z,23.80
2018-02-08T13:35:17.732Z,22.50
2018-02-08T13:37:46.434Z,23.73
2018-02-08T13:40:17.919Z,25.23
2018-02-08T13:42:48.397Z,23.03
2018-02-08T13:45:18.000Z,27.37
2018-02-08T13:51:00.748Z,21.50
2018-02-08T13:53:33.925Z,21.90
2018-02-08T13:56:07.116Z,24.23
2018-02-08T13:58:54.965Z,22.07
2018-02-08T14:01:22.716Z,22.00
2018-02-08T14:03:50.507Z,25.63
2018-02-08T14:06:20.414Z,20.93
2018-02-08T14:08:48.741Z,22.80
2018-02-08T14:11:16.752Z,20.20
2018-02-08T14:13:45.959Z,22.87
2018-02-08T14:16:14.439Z,21.63
2018-02-08T14:18:42.056Z,22.70
2018-02-08T14:21:10.726Z,20.93
2018-02-08T14:23:38.448Z,20.67
2018-02-08T14:26:06.068Z,20.77
2018-02-08T14:28:33.621Z,20.97
2018-02-08T14:31:01.419Z,23.10
2018-02-08T14:33:29.506Z,19.20
2018-02-08T14:35:57.227Z,19.60
2018-02-08T14:38:26.268Z,20.00
2018-02-08T14:40:55.162Z,23.47
2018-02-08T14:43:23.133Z,21.53
2018-02-08T14:45:51.008Z,17.33
2018-02-08T14:48:19.121Z,23.63
2018-02-08T14:50:46.740Z,19.57
2018-02-08T14:53:14.260Z,18.50
2018-02-08T14:55:42.797Z,21.03
2018-02-08T14:58:10.371Z,18.03
2018-02-08T15:00:37.994Z,19.03
2018-02-08T15:03:05.503Z,18.60
2018-02-08T15:05:33.037Z,19.90
2018-02-08T15:08:00.761Z,55.40
2018-02-08T15:10:28.352Z,21.67
2018-02-08T15:12:56.098Z,20.80
2018-02-08T15:15:23.818Z,18.43
2018-02-08T15:17:52.632Z,25.90
2018-02-08T15:20:20.625Z,21.60
2018-02-08T15:22:48.392Z,22.67
2018-02-08T15:25:15.968Z,20.27
2018-02-08T15:27:43.506Z,22.47
2018-02-08T15:30:11.022Z,23.17
2018-02-08T15:32:38.568Z,30.23
2018-02-08T15:35:06.081Z,31.83
2018-02-08T15:37:33.646Z,24.63
2018-02-08T15:40:01.166Z,25.70
2018-02-08T15:42:29.544Z,31.37
2018-02-08T15:44:57.457Z,23.73
2018-02-08T15:47:25.183Z,27.20
2018-02-08T15:49:53.907Z,28.40
2018-02-08T15:52:21.672Z,25.40
2018-02-08T15:54:49.336Z,29.97
2018-02-08T15:57:17.202Z,28.57
2018-02-08T15:59:44.816Z,31.43
2018-02-08T16:02:13.146Z,28.40
2018-02-08T16:04:40.671Z,32.63
2018-02-08T16:07:08.228Z,31.13
2018-02-08T16:09:36.553Z,32.77
2018-02-08T16:12:04.187Z,28.00
2018-02-08T16:14:31.904Z,31.13
2018-02-08T16:16:59.474Z,31.93
2018-02-08T16:19:27.156Z,29.70
2018-02-08T16:21:55.624Z,33.27
2018-02-08T16:24:23.639Z,31.80
2018-02-08T16:26:51.941Z,33.13
2018-02-08T16:29:20.803Z,31.70
2018-02-08T16:31:48.472Z,33.00
2018-02-08T16:34:16.236Z,35.90
2018-02-08T16:36:43.829Z,41.80
2018-02-08T16:39:11.617Z,31.47
2018-02-08T16:41:39.324Z,38.60
2018-02-08T16:44:06.856Z,37.13
2018-02-08T16:46:35.161Z,42.57
2018-02-08T16:49:02.692Z,35.23
2018-02-08T16:51:30.213Z,39.37
2018-02-08T16:53:58.251Z,35.70
2018-02-08T16:56:25.860Z,42.33
2018-02-08T16:58:53.895Z,39.37
2018-02-08T17:01:22.280Z,41.13
2018-02-08T17:03:51.071Z,38.70
2018-02-08T17:06:19.032Z,41.73
2018-02-08T17:08:47.689Z,41.80
2018-02-08T17:11:15.359Z,46.53
2018-02-08T17:13:42.895Z,40.67
2018-02-08T17:16:12.125Z,45.70
2018-02-08T17:18:39.670Z,46.40
2018-02-08T17:21:07.350Z,51.13
2018-02-08T17:23:34.875Z,44.57
2018-02-08T17:26:03.190Z,46.90
2018-02-08T17:28:30.727Z,56.37
2018-02-08T17:30:58.544Z,48.50
2018-02-08T17:33:26.413Z,50.38
2018-02-08T17:35:55.047Z,49.65
2018-02-08T17:38:23.240Z,54.83
2018-02-08T17:40:51.721Z,46.58
2018-02-08T17:43:20.461Z,51.50
2018-02-08T17:45:48.830Z,50.05
2018-02-08T17:48:16.518Z,53.70
2018-02-08T17:50:45.356Z,50.60
2018-02-08T17:53:13.936Z,47.67
2018-02-08T17:55:41.637Z,52.03
2018-02-08T17:58:09.469Z,45.03
2018-02-08T18:00:37.202Z,45.93
2018-02-08T18:03:04.769Z,51.67
2018-02-08T18:05:32.317Z,45.45
2018-02-08T18:07:59.845Z,47.30
2018-02-08T18:10:27.509Z,49.67
2018-02-08T18:12:56.182Z,52.00
2018-02-08T18:15:24.834Z,50.15
2018-02-08T18:17:53.248Z,52.17
2018-02-08T18:20:21.888Z,50.25
2018-02-08T18:22:49.696Z,45.03
2018-02-08T18:25:17.227Z,47.40
2018-02-08T18:27:44.944Z,44.28
2018-02-08T18:30:12.506Z,45.28
2018-02-08T18:32:41.748Z,40.42
2018-02-08T18:35:09.357Z,34.08
2018-02-08T18:37:37.772Z,37.23
2018-02-08T18:40:05.460Z,41.03
2018-02-08T18:42:33.030Z,38.20
2018-02-08T18:45:01.621Z,41.10
2018-02-08T18:47:29.390Z,40.05
2018-02-08T18:49:57.132Z,47.93
2018-02-08T18:52:25.506Z,38.22
2018-02-08T18:54:54.634Z,38.15
2018-02-08T18:57:23.128Z,40.33
2018-02-08T18:59:50.972Z,37.22
2018-02-08T19:02:20.688Z,36.22
2018-02-08T19:04:48.848Z,39.92
2018-02-08T19:07:16.521Z,41.33
2018-02-08T19:09:44.176Z,35.15
2018-02-08T19:12:11.860Z,37.87
2018-02-08T19:14:40.301Z,48.50
2018-02-08T19:17:08.204Z,36.77
2018-02-08T19:19:35.741Z,44.60
2018-02-08T19:22:03.279Z,60.65
2018-02-08T19:24:31.058Z,47.28
2018-02-08T19:26:58.782Z,48.78
2018-02-08T19:29:27.511Z,43.17
2018-02-08T19:31:55.173Z,31.50
2018-02-08T19:34:23.720Z,35.30
2018-02-08T19:36:52.340Z,41.17
2018-02-08T19:39:20.976Z,43.40
2018-02-08T19:41:49.624Z,43.38
2018-02-08T19:44:17.273Z,39.80
2018-02-08T19:46:44.798Z,41.70
2018-02-08T19:49:13.146Z,37.65
2018-02-08T19:51:40.694Z,41.83
2018-02-08T19:54:08.262Z,42.42
2018-02-08T19:56:35.799Z,38.58
2018-02-08T19:59:03.337Z,40.80
2018-02-08T20:01:30.891Z,40.80
2018-02-08T20:03:58.442Z,38.13
2018-02-08T20:06:26.633Z,41.37
2018-02-08T20:08:54.229Z,36.83
2018-02-08T20:11:22.273Z,41.10
2018-02-08T20:13:50.041Z,38.80
2018-02-08T20:16:17.703Z,38.83
2018-02-08T20:18:45.244Z,37.53
2018-02-08T20:21:12.805Z,38.08
2018-02-08T20:23:40.487Z,40.12
2018-02-08T20:26:08.016Z,40.80
2018-02-08T20:28:36.312Z,38.92
2018-02-08T20:31:09.425Z,41.10
2018-02-08T20:33:36.956Z,44.55
2018-02-08T20:36:04.537Z,34.92
2018-02-08T20:38:32.077Z,44.78
2018-02-08T20:40:59.650Z,41.70
2018-02-08T20:43:31.976Z,46.63
2018-02-08T20:45:59.569Z,41.85
2018-02-08T20:48:27.260Z,37.65
2018-02-08T20:50:54.795Z,38.20
2018-02-08T20:53:23.142Z,38.38
2018-02-08T20:55:51.460Z,36.95
2018-02-08T20:58:19.009Z,34.58
2018-02-08T21:00:46.905Z,37.67
2018-02-08T21:03:14.761Z,35.88
2018-02-08T21:05:42.492Z,37.03
2018-02-08T21:08:10.858Z,35.90
2018-02-08T21:10:39.373Z,34.28
2018-02-08T21:13:07.767Z,35.35
2018-02-08T21:15:35.422Z,30.40
2018-02-08T21:18:03.808Z,26.35
2018-02-08T21:20:31.993Z,26.33
2018-02-08T21:23:00.464Z,30.80
2018-02-08T21:25:28.040Z,37.95
2018-02-08T21:27:55.790Z,27.58
2018-02-08T21:30:23.349Z,29.52
2018-02-08T21:32:50.911Z,24.98
2018-02-08T21:35:18.485Z,22.08
2018-02-08T21:37:46.344Z,20.45
2018-02-08T21:40:13.885Z,17.23
2018-02-08T21:42:41.436Z,16.98
2018-02-08T21:45:09.431Z,22.05
2018-02-08T21:47:37.497Z,24.73
2018-02-08T21:50:05.774Z,23.50
2018-02-08T21:52:33.743Z,19.12
2018-02-08T21:55:01.509Z,22.08
2018-02-08T21:57:29.136Z,21.83
2018-02-08T21:59:57.755Z,18.00
2018-02-08T22:02:25.936Z,17.17
2018-02-08T22:04:53.514Z,14.77
2018-02-08T22:07:21.053Z,14.02
2018-02-08T22:09:48.597Z,13.70
2018-02-08T22:12:16.715Z,16.67
2018-02-08T22:14:44.360Z,14.63
2018-02-08T22:17:12.244Z,13.50
2018-02-08T22:19:40.396Z,13.48
2018-02-08T22:22:08.155Z,8.95
2018-02-08T22:24:35.759Z,13.15
2018-02-08T22:27:04.924Z,13.88
2018-02-08T22:29:34.106Z,11.00
2018-02-08T22:32:04.148Z,9.65
2018-02-08T22:34:33.444Z,11.45
2018-02-08T22:37:01.168Z,11.75
2018-02-08T22:39:29.011Z,11.05
2018-02-08T22:41:56.585Z,15.32
2018-02-08T22:44:24.406Z,10.88
2018-02-08T22:46:52.758Z,12.27
2018-02-08T22:49:20.285Z,9.85
2018-02-08T22:51:48.604Z,9.55
2018-02-08T22:54:16.172Z,10.30
2018-02-08T22:56:43.688Z,11.12
2018-02-08T22:59:12.305Z,9.95
2018-02-08T23:01:40.836Z,9.52
2018-02-08T23:04:10.005Z,10.27
2018-02-08T23:06:38.037Z,10.18
2018-02-08T23:09:06.027Z,8.27
2018-02-08T23:11:33.996Z,11.77
2018-02-08T23:14:02.304Z,10.68
2018-02-08T23:16:29.940Z,11.38
2018-02-08T23:18:57.988Z,11.05
2018-02-08T23:21:25.671Z,10.30
2018-02-08T23:23:54.156Z,9.50
2018-02-08T23:26:21.720Z,7.43
2018-02-08T23:28:49.276Z,8.05
2018-02-08T23:31:16.795Z,7.30
2018-02-08T23:33:45.108Z,7.28
2018-02-08T23:36:12.639Z,6.87
2018-02-08T23:38:41.133Z,6.50
2018-02-08T23:41:09.218Z,6.32
2018-02-08T23:43:38.012Z,8.50
2018-02-08T23:46:06.197Z,5.75
2018-02-08T23:48:34.973Z,8.30
2018-02-08T23:51:04.072Z,5.40
2018-02-08T23:53:33.378Z,5.90
2018-02-08T23:56:02.365Z,6.55
2018-02-08T23:58:30.131Z,6.43
